Time;durP1;ratioP1;P1;durP2;ratioP2;P2;SDS_P1;SDS_P2;PMS_P1;PMS_P2;Temp;Humidity;BMP_temperature;BMP_pressure;BME280_temperature;BME280_humidity;BME280_pressure;Samples;Min_cycle;Max_cycle;Signal;HPM_P1;HPM_P2
2022/12/02 00:00:27;;;;;;;11.35;7.82;;;12.30;99.90;;;;;;4975126;28;20082;-75
2022/12/02 00:02:57;;;;;;;9.02;7.10;;;12.30;99.90;;;;;;4948958;28;20046;-77
2022/12/02 00:05:31;;;;;;;11.60;7.35;;;12.30;99.90;;;;;;4986075;28;20105;-76
2022/12/02 00:08:01;;;;;;;12.48;6.95;;;12.30;99.90;;;;;;4981226;28;20042;-75
2022/12/02 00:10:32;;;;;;;12.05;7.00;;;12.30;99.90;;;;;;4964642;28;20074;-75
2022/12/02 00:13:23;;;;;;;11.30;7.72;;;12.30;99.90;;;;;;4983192;28;20476;-74
2022/12/02 00:16:24;;;;;;;8.85;6.25;;;12.30;99.90;;;;;;4971604;28;20068;-75
2022/12/02 00:18:52;;;;;;;13.95;8.05;;;12.30;99.90;;;;;;4975123;28;20133;-74
2022/12/02 00:21:21;;;;;;;16.23;8.68;;;12.30;99.90;;;;;;4982047;28;20057;-75
2022/12/02 00:23:48;;;;;;;11.25;7.75;;;12.20;99.90;;;;;;4986974;28;20697;-74
2022/12/02 00:26:16;;;;;;;11.38;8.40;;;12.20;99.90;;;;;;4980743;28;20051;-74
2022/12/02 00:28:43;;;;;;;12.02;8.25;;;12.20;99.90;;;;;;4980939;28;20262;-74
2022/12/02 00:31:11;;;;;;;12.57;7.88;;;12.20;99.90;;;;;;4966041;28;20085;-75
2022/12/02 00:33:38;;;;;;;14.82;7.85;;;12.10;99.90;;;;;;4975050;28;20127;-75
2022/12/02 00:36:06;;;;;;;12.60;7.00;;;12.10;99.90;;;;;;4979892;28;20142;-75
2022/12/02 00:38:33;;;;;;;11.00;6.45;;;12.10;99.90;;;;;;4978877;28;20042;-75
2022/12/02 00:41:01;;;;;;;10.52;6.63;;;12.10;99.90;;;;;;4964963;28;20050;-75
2022/12/02 00:46:33;;;;;;;11.13;6.57;;;12.10;99.90;;;;;;4988275;28;20043;-74
2022/12/02 00:49:06;;;;;;;9.23;6.40;;;12.10;99.90;;;;;;4969147;28;20505;-74
2022/12/02 00:51:35;;;;;;;9.68;6.05;;;12.10;99.90;;;;;;4966303;28;20290;-75
2022/12/02 00:54:04;;;;;;;11.70;6.45;;;12.10;99.90;;;;;;4991721;28;20132;-75
2022/12/02 00:56:32;;;;;;;8.57;5.93;;;12.20;99.90;;;;;;4985969;28;20042;-75
2022/12/02 00:59:00;;;;;;;10.07;6.43;;;12.20;99.90;;;;;;4973310;28;20062;-74
2022/12/02 01:01:29;;;;;;;9.50;5.97;;;12.20;99.90;;;;;;4980029;28;20030;-74
2022/12/02 01:03:57;;;;;;;12.98;6.78;;;12.20;99.90;;;;;;4975143;28;20050;-74
2022/12/02 01:06:24;;;;;;;9.25;5.38;;;12.20;99.90;;;;;;4985923;28;20050;-74
2022/12/02 01:08:52;;;;;;;10.13;6.18;;;12.20;99.90;;;;;;4983334;28;20077;-73
2022/12/02 01:11:19;;;;;;;10.57;6.00;;;12.20;99.90;;;;;;4971594;28;20150;-75
2022/12/02 01:13:47;;;;;;;10.43;6.20;;;12.20;99.90;;;;;;4956290;28;20061;-74
2022/12/02 01:16:14;;;;;;;7.95;5.57;;;12.30;99.90;;;;;;4974975;28;20480;-74
2022/12/02 01:18:42;;;;;;;11.82;6.38;;;12.20;99.90;;;;;;4976799;28;20140;-74
2022/12/02 01:21:10;;;;;;;8.48;5.70;;;12.20;99.90;;;;;;4979096;28;20042;-73
2022/12/02 01:23:37;;;;;;;8.73;5.78;;;12.20;99.90;;;;;;4974653;28;20223;-76
2022/12/02 01:26:05;;;;;;;11.05;6.00;;;12.20;99.90;;;;;;4968626;28;20120;-74
2022/12/02 01:28:32;;;;;;;9.13;6.57;;;12.30;99.90;;;;;;4975401;28;20058;-74
2022/12/02 01:31:00;;;;;;;11.80;7.78;;;12.30;99.90;;;;;;4959123;28;20061;-75
2022/12/02 01:33:27;;;;;;;12.00;7.88;;;12.30;99.90;;;;;;4980921;28;20089;-76
2022/12/02 01:35:55;;;;;;;11.43;6.32;;;12.30;99.90;;;;;;4988611;28;20070;-74
2022/12/02 01:38:22;;;;;;;13.98;6.95;;;12.30;99.90;;;;;;4969396;28;20126;-74
2022/12/02 01:40:51;;;;;;;9.77;7.22;;;12.30;99.90;;;;;;4969993;28;20183;-74
2022/12/02 01:43:19;;;;;;;11.82;8.95;;;12.20;99.90;;;;;;4971618;28;20047;-75
2022/12/02 01:45:48;;;;;;;11.77;7.28;;;12.10;99.90;;;;;;4970066;28;20050;-75
2022/12/02 01:48:15;;;;;;;11.88;7.90;;;12.10;99.90;;;;;;4970526;28;20129;-76
2022/12/02 01:50:43;;;;;;;16.73;8.00;;;12.10;99.90;;;;;;4964355;28;20131;-74
2022/12/02 01:53:12;;;;;;;12.82;8.93;;;12.10;99.90;;;;;;4970452;28;20086;-74
2022/12/02 01:55:40;;;;;;;14.90;8.57;;;12.10;99.90;;;;;;4950475;28;20055;-74
2022/12/02 01:58:12;;;;;;;11.02;7.13;;;12.10;99.90;;;;;;4967054;28;20059;-74
2022/12/02 02:00:40;;;;;;;12.77;8.10;;;12.10;99.90;;;;;;4945893;28;20406;-74
2022/12/02 02:03:07;;;;;;;9.43;6.88;;;12.10;99.90;;;;;;4968151;28;20089;-75
2022/12/02 02:05:35;;;;;;;12.55;8.30;;;12.10;99.90;;;;;;4952071;28;20051;-74
2022/12/02 02:08:06;;;;;;;11.75;7.20;;;12.10;99.90;;;;;;4979873;28;20386;-75
2022/12/02 02:10:37;;;;;;;9.70;6.70;;;12.10;99.90;;;;;;4947848;28;20105;-75
2022/12/02 02:13:08;;;;;;;10.02;7.47;;;12.00;99.90;;;;;;4963004;28;20130;-75
2022/12/02 02:15:39;;;;;;;14.27;8.52;;;12.00;99.90;;;;;;4944532;28;20058;-74
2022/12/02 02:18:07;;;;;;;10.95;7.30;;;12.00;99.90;;;;;;4959133;28;20083;-75
2022/12/02 02:20:39;;;;;;;10.93;7.13;;;11.90;99.90;;;;;;4942933;28;20046;-74
2022/12/02 02:23:07;;;;;;;11.10;7.38;;;11.90;99.90;;;;;;4985809;28;20117;-74
2022/12/02 02:25:43;;;;;;;11.15;7.10;;;11.90;99.90;;;;;;4969823;28;20068;-74
2022/12/02 02:28:13;;;;;;;11.18;6.70;;;11.90;99.90;;;;;;4969885;28;20239;-74
2022/12/02 02:30:41;;;;;;;11.15;7.78;;;11.80;99.90;;;;;;4971147;28;20125;-74
2022/12/02 02:33:13;;;;;;;15.10;7.97;;;11.80;99.90;;;;;;4953494;28;20054;-74
2022/12/02 02:35:42;;;;;;;13.32;8.18;;;11.70;99.90;;;;;;4952798;28;20145;-74
2022/12/02 02:38:14;;;;;;;11.40;7.65;;;11.70;99.90;;;;;;4969254;28;20583;-75
2022/12/02 02:40:44;;;;;;;13.02;8.00;;;11.70;99.90;;;;;;4968896;28;20446;-74
2022/12/02 02:43:14;;;;;;;10.10;7.05;;;11.70;99.90;;;;;;4950378;28;20101;-74
2022/12/02 02:45:43;;;;;;;11.48;7.65;;;11.70;99.90;;;;;;4961844;28;20413;-74
2022/12/02 02:48:13;;;;;;;10.43;7.43;;;11.60;99.90;;;;;;4982285;28;20057;-74
2022/12/02 02:50:44;;;;;;;16.15;8.70;;;11.60;99.90;;;;;;4969182;28;20039;-74
2022/12/02 02:53:16;;;;;;;11.20;7.22;;;11.60;99.90;;;;;;4978095;28;20046;-74
2022/12/02 02:55:44;;;;;;;15.02;8.82;;;11.70;99.90;;;;;;4938128;28;20047;-74
2022/12/02 02:58:13;;;;;;;15.48;8.68;;;11.60;99.90;;;;;;4950024;29;20396;-74
2022/12/02 03:01:00;;;;;;;13.52;8.70;;;11.60;99.90;;;;;;4955680;28;20050;-74
2022/12/02 03:03:33;;;;;;;13.82;8.10;;;11.60;99.90;;;;;;4982592;28;20110;-74
2022/12/02 03:06:03;;;;;;;11.88;7.28;;;11.60;99.90;;;;;;4968703;28;20046;-75
2022/12/02 03:08:32;;;;;;;12.85;9.88;;;11.60;99.90;;;;;;4970264;28;20054;-75
2022/12/02 03:11:01;;;;;;;13.85;7.43;;;11.60;99.90;;;;;;4967353;28;20093;-74
2022/12/02 03:13:31;;;;;;;14.77;8.63;;;11.60;99.90;;;;;;4965801;28;20043;-74
2022/12/02 03:16:00;;;;;;;14.90;8.48;;;11.60;99.90;;;;;;4920974;28;20047;-74
2022/12/02 03:18:28;;;;;;;11.70;7.38;;;11.60;99.90;;;;;;4957526;28;20054;-75
2022/12/02 03:20:56;;;;;;;13.40;9.02;;;11.60;99.90;;;;;;4955004;28;20047;-75
2022/12/02 03:23:24;;;;;;;12.45;7.22;;;11.50;99.90;;;;;;4969297;28;20058;-75
2022/12/02 03:25:52;;;;;;;12.05;7.97;;;11.50;99.90;;;;;;4969763;28;20382;-74
2022/12/02 03:28:19;;;;;;;12.80;8.55;;;11.50;99.90;;;;;;4968031;28;20485;-74
2022/12/02 03:30:47;;;;;;;15.50;8.40;;;11.60;99.90;;;;;;4968088;28;20819;-75
2022/12/02 03:33:14;;;;;;;11.73;7.63;;;11.50;99.90;;;;;;4968678;28;20157;-75
2022/12/02 03:35:42;;;;;;;14.48;8.15;;;11.30;99.90;;;;;;4968782;28;20047;-74
2022/12/02 03:38:10;;;;;;;20.20;11.38;;;11.10;99.90;;;;;;4965612;28;20039;-75
2022/12/02 03:40:37;;;;;;;16.85;9.57;;;10.90;99.90;;;;;;4967600;28;20031;-74
2022/12/02 03:43:05;;;;;;;15.18;9.27;;;10.80;99.90;;;;;;4972237;28;20214;-74
2022/12/02 03:45:34;;;;;;;17.25;10.00;;;10.80;99.90;;;;;;4973973;28;20054;-75
2022/12/02 03:48:03;;;;;;;16.77;9.80;;;10.90;99.90;;;;;;4972592;28;20734;-74
2022/12/02 03:50:31;;;;;;;15.15;10.85;;;11.00;99.90;;;;;;4973652;28;20051;-74
2022/12/02 03:52:59;;;;;;;16.73;9.60;;;11.00;99.90;;;;;;4971980;28;20207;-76
2022/12/02 03:55:26;;;;;;;13.55;9.10;;;11.10;99.90;;;;;;4972459;28;20124;-74
2022/12/02 03:57:54;;;;;;;13.32;9.50;;;11.10;99.90;;;;;;4972132;28;20091;-74
2022/12/02 04:00:22;;;;;;;18.42;10.25;;;11.10;99.90;;;;;;4967692;28;20134;-75
2022/12/02 04:02:49;;;;;;;14.60;9.05;;;10.90;99.90;;;;;;4972926;28;20071;-75
2022/12/02 04:05:17;;;;;;;15.52;10.13;;;10.90;99.90;;;;;;4952246;29;20089;-74
2022/12/02 04:07:44;;;;;;;12.38;9.32;;;10.90;99.90;;;;;;4968684;28;20049;-75
2022/12/02 04:10:12;;;;;;;12.93;8.02;;;10.80;99.90;;;;;;4973257;28;20054;-75
2022/12/02 04:12:39;;;;;;;13.10;8.10;;;10.80;99.90;;;;;;4973017;28;20134;-75
2022/12/02 04:15:07;;;;;;;18.23;9.35;;;10.80;99.90;;;;;;4973017;28;20055;-74
2022/12/02 04:17:35;;;;;;;13.68;8.85;;;10.80;99.90;;;;;;4987647;28;20442;-74
2022/12/02 04:20:04;;;;;;;11.63;8.60;;;10.80;99.90;;;;;;4972979;28;20524;-75
2022/12/02 04:22:32;;;;;;;15.32;9.25;;;10.80;99.90;;;;;;4973102;28;20089;-75
2022/12/02 04:25:01;;;;;;;11.05;8.48;;;10.80;99.90;;;;;;4971695;28;20047;-75
2022/12/02 04:27:28;;;;;;;12.50;8.23;;;10.90;99.90;;;;;;4973025;28;20042;-75
2022/12/02 04:29:56;;;;;;;12.57;8.18;;;10.90;99.90;;;;;;4968458;28;20105;-75
2022/12/02 04:32:24;;;;;;;13.20;8.10;;;11.00;99.90;;;;;;4963577;28;20071;-75
2022/12/02 04:34:52;;;;;;;13.50;9.00;;;10.90;99.90;;;;;;4959617;28;20043;-75
2022/12/02 04:37:19;;;;;;;14.23;8.95;;;10.90;99.90;;;;;;4963823;28;20058;-74
2022/12/02 04:39:47;;;;;;;10.02;7.90;;;10.90;99.90;;;;;;4970491;28;20055;-75
2022/12/02 04:42:14;;;;;;;12.15;8.00;;;10.90;99.90;;;;;;4971451;28;20561;-74
2022/12/02 04:44:41;;;;;;;12.68;7.95;;;10.90;99.90;;;;;;4971572;28;20174;-75
2022/12/02 04:47:09;;;;;;;11.40;7.97;;;11.00;99.90;;;;;;4972586;28;20133;-74
2022/12/02 04:49:36;;;;;;;9.13;7.30;;;11.00;99.90;;;;;;4972645;28;20125;-74
2022/12/02 04:52:04;;;;;;;13.25;7.25;;;11.00;99.90;;;;;;4955832;28;20047;-74
2022/12/02 04:54:31;;;;;;;11.23;7.45;;;11.00;99.90;;;;;;4971734;28;20051;-75
2022/12/02 04:56:59;;;;;;;13.73;8.18;;;11.00;99.90;;;;;;4970845;28;20050;-75
2022/12/02 04:59:26;;;;;;;12.43;8.48;;;11.00;99.90;;;;;;4964882;28;20218;-74
2022/12/02 05:01:53;;;;;;;9.82;7.25;;;11.00;99.90;;;;;;4968329;28;20066;-74
2022/12/02 05:04:21;;;;;;;14.75;9.20;;;10.90;99.90;;;;;;4942412;28;20126;-75
2022/12/02 05:06:48;;;;;;;11.95;7.82;;;11.00;99.90;;;;;;4960743;28;20126;-75
2022/12/02 05:09:16;;;;;;;12.50;8.77;;;11.00;99.90;;;;;;4951713;28;20055;-74
2022/12/02 05:11:43;;;;;;;15.07;9.55;;;10.90;99.90;;;;;;4942302;28;20057;-74
2022/12/02 05:14:11;;;;;;;12.48;8.52;;;10.90;99.90;;;;;;4962692;28;20485;-76
2022/12/02 05:16:38;;;;;;;11.85;7.97;;;10.90;99.90;;;;;;4956481;28;20490;-75
2022/12/02 05:19:06;;;;;;;10.65;7.47;;;10.90;99.90;;;;;;4959319;28;20098;-74
2022/12/02 05:21:33;;;;;;;12.88;8.75;;;10.90;99.90;;;;;;4952122;29;20070;-75
2022/12/02 05:24:01;;;;;;;15.75;9.02;;;10.80;99.90;;;;;;4952631;29;20157;-74
2022/12/02 05:26:28;;;;;;;13.52;8.45;;;10.70;99.90;;;;;;4951171;29;20071;-74
2022/12/02 05:28:56;;;;;;;13.95;8.93;;;10.70;99.90;;;;;;4951252;29;20401;-75
2022/12/02 05:31:25;;;;;;;12.20;7.97;;;10.60;99.90;;;;;;4975166;28;20050;-75
2022/12/02 05:33:52;;;;;;;11.75;7.70;;;10.60;99.90;;;;;;4965658;28;20129;-74
2022/12/02 05:36:20;;;;;;;15.82;8.35;;;10.60;99.90;;;;;;4953244;28;20650;-74
2022/12/02 05:38:47;;;;;;;12.82;7.53;;;10.60;99.90;;;;;;4962428;28;20047;-74
2022/12/02 05:41:15;;;;;;;12.50;8.65;;;10.50;99.90;;;;;;4972065;28;20042;-75
2022/12/02 05:43:42;;;;;;;19.02;8.43;;;10.50;99.90;;;;;;4954794;28;20417;-74
2022/12/02 05:46:16;;;;;;;11.85;7.57;;;10.60;99.90;;;;;;4970682;28;20050;-75
2022/12/02 05:48:45;;;;;;;11.52;7.80;;;10.60;99.90;;;;;;4970981;28;20051;-74
2022/12/02 05:51:22;;;;;;;11.13;8.63;;;10.60;99.90;;;;;;4986402;28;20395;-74
2022/12/02 05:53:49;;;;;;;;;;;10.60;99.90;;;;;;4970238;28;20066;-75
2022/12/02 05:56:24;;;;;;;15.40;9.48;;;10.50;99.90;;;;;;4965841;28;20029;-75
2022/12/02 05:58:52;;;;;;;12.50;8.50;;;10.50;99.90;;;;;;4954791;28;20489;-74
2022/12/02 06:01:30;;;;;;;13.48;8.63;;;10.50;99.90;;;;;;4958838;28;20050;-74
2022/12/02 06:03:58;;;;;;;11.57;8.70;;;10.60;99.90;;;;;;4972060;28;20224;-74
2022/12/02 06:06:33;;;;;;;12.70;9.35;;;10.70;99.90;;;;;;4965910;28;20039;-75
2022/12/02 06:09:01;;;;;;;14.13;10.25;;;10.90;99.90;;;;;;4964818;28;20072;-74
2022/12/02 06:11:37;;;;;;;11.20;7.88;;;11.10;99.90;;;;;;4960698;28;20050;-74
2022/12/02 06:14:27;;;;;;;12.85;8.45;;;11.40;99.90;;;;;;4970585;28;20034;-74
2022/12/02 06:16:58;;;;;;;12.60;9.35;;;11.60;99.90;;;;;;4970280;28;20050;-74
2022/12/02 06:19:33;;;;;;;16.40;9.93;;;11.80;99.90;;;;;;4970256;28;20043;-74
2022/12/02 06:22:07;;;;;;;12.88;11.43;;;12.30;99.90;;;;;;4954752;28;20133;-74
2022/12/02 06:24:35;;;;;;;17.73;10.27;;;12.60;99.90;;;;;;4954791;28;20122;-75
2022/12/02 06:27:03;;;;;;;18.27;10.05;;;13.00;99.90;;;;;;4969367;28;20504;-75
2022/12/02 06:29:33;;;;;;;20.20;13.57;;;13.50;99.90;;;;;;4969778;28;20161;-74
2022/12/02 06:32:00;;;;;;;14.25;10.30;;;14.00;99.90;;;;;;4951829;28;20043;-75
2022/12/02 06:34:37;;;;;;;19.55;8.43;;;14.60;99.90;;;;;;4964647;28;20054;-74
2022/12/02 06:37:27;;;;;;;10.15;6.75;;;15.10;99.90;;;;;;4965796;28;20123;-74
2022/12/02 06:39:57;;;;;;;12.43;8.32;;;15.60;99.90;;;;;;4953231;28;20438;-75
2022/12/02 06:42:44;;;;;;;8.98;7.03;;;16.00;99.90;;;;;;4962048;28;20051;-75
2022/12/02 06:45:28;;;;;;;11.27;7.85;;;16.20;99.90;;;;;;4951395;28;20074;-75
2022/12/02 06:48:03;;;;;;;14.93;12.20;;;16.70;99.90;;;;;;4949595;28;20067;-74
2022/12/02 06:50:40;;;;;;;12.88;10.27;;;17.00;99.90;;;;;;4951381;28;20163;-74
2022/12/02 06:53:20;;;;;;;11.32;7.55;;;17.40;99.90;;;;;;4933740;29;20059;-74
2022/12/02 06:55:49;;;;;;;9.77;6.65;;;17.90;99.90;;;;;;4950399;28;20600;-75
2022/12/02 06:58:25;;;;;;;10.38;6.28;;;18.50;99.90;;;;;;4968931;28;20058;-77
2022/12/02 07:01:00;;;;;;;11.60;6.78;;;19.00;99.90;;;;;;4954880;28;20061;-74
2022/12/02 07:03:32;;;;;;;9.27;5.07;;;19.40;99.90;;;;;;4979860;28;20126;-75
2022/12/02 07:06:14;;;;;;;9.50;6.22;;;19.60;99.90;;;;;;4964217;28;20377;-74
2022/12/02 07:08:42;;;;;;;13.38;8.63;;;19.90;99.90;;;;;;4967754;28;20058;-75
2022/12/02 07:11:48;;;;;;;14.27;9.90;;;20.10;99.90;;;;;;4966753;28;20138;-74
2022/12/02 07:14:24;;;;;;;10.48;7.65;;;20.50;99.90;;;;;;4982685;28;20518;-73
2022/12/02 07:16:54;;;;;;;11.93;7.93;;;21.30;99.90;;;;;;4969374;28;20515;-72
2022/12/02 07:19:34;;;;;;;9.95;7.32;;;22.00;99.90;;;;;;4965621;28;20043;-73
2022/12/02 07:22:23;;;;;;;9.68;8.32;;;22.50;99.50;;;;;;4967775;28;20057;-72
2022/12/02 07:24:56;;;;;;;12.98;8.93;;;22.60;99.40;;;;;;4965140;28;20791;-72
2022/12/02 07:27:35;;;;;;;13.30;9.35;;;22.60;99.30;;;;;;4968167;28;20097;-72
2022/12/02 07:30:19;;;;;;;16.17;10.30;;;22.40;99.80;;;;;;4964313;28;20351;-72
2022/12/02 07:32:46;;;;;;;13.32;8.93;;;22.50;99.60;;;;;;4968594;28;20047;-74
2022/12/02 07:35:14;;;;;;;9.85;7.28;;;22.40;99.60;;;;;;4986343;28;20129;-72
2022/12/02 07:37:41;;;;;;;8.80;5.28;;;22.30;99.90;;;;;;4987465;28;20074;-74
2022/12/02 07:40:09;;;;;;;6.18;4.55;;;22.10;99.90;;;;;;4987909;28;20047;-73
2022/12/02 07:42:36;;;;;;;5.80;3.78;;;21.80;99.90;;;;;;4972217;28;20124;-73
2022/12/02 07:45:05;;;;;;;9.25;4.18;;;21.60;99.90;;;;;;4970557;28;20584;-72
2022/12/02 07:47:33;;;;;;;7.55;4.00;;;21.30;99.90;;;;;;4985118;28;20043;-73
2022/12/02 07:50:00;;;;;;;5.07;3.80;;;21.00;99.90;;;;;;4968059;28;20077;-72
2022/12/02 07:52:28;;;;;;;7.50;3.75;;;20.90;99.90;;;;;;4967573;28;20077;-74
2022/12/02 07:54:55;;;;;;;8.00;3.60;;;20.70;99.90;;;;;;4967743;28;20047;-76
2022/12/02 07:57:23;;;;;;;5.78;3.40;;;20.60;99.90;;;;;;4967168;28;20369;-73
2022/12/02 07:59:50;;;;;;;10.93;3.85;;;20.50;99.90;;;;;;4969319;28;20361;-72
2022/12/02 08:02:18;;;;;;;5.75;3.83;;;20.60;99.90;;;;;;4967506;28;20053;-73
2022/12/02 08:04:45;;;;;;;6.97;4.15;;;20.20;99.90;;;;;;4950640;28;20078;-73
2022/12/02 08:07:13;;;;;;;15.52;4.20;;;20.30;99.90;;;;;;4966882;28;20055;-73
2022/12/02 08:09:41;;;;;;;5.03;3.60;;;20.30;99.90;;;;;;4967994;28;20050;-73
2022/12/02 08:12:08;;;;;;;4.60;3.55;;;20.30;99.90;;;;;;4969297;28;20051;-73
2022/12/02 08:14:35;;;;;;;5.95;3.67;;;20.20;99.90;;;;;;4968438;28;20519;-73
2022/12/02 08:17:03;;;;;;;5.05;3.13;;;20.20;99.90;;;;;;4967819;28;20066;-72
2022/12/02 08:19:31;;;;;;;5.68;3.20;;;19.70;99.90;;;;;;4967902;28;20505;-73
2022/12/02 08:21:58;;;;;;;6.07;3.20;;;19.40;99.90;;;;;;4969482;28;20373;-71
2022/12/02 08:24:25;;;;;;;4.75;2.65;;;18.90;99.90;;;;;;4969814;28;20046;-73
2022/12/02 08:26:53;;;;;;;6.25;3.92;;;18.30;99.90;;;;;;4955086;28;20053;-72
2022/12/02 08:29:20;;;;;;;6.93;3.22;;;18.00;99.90;;;;;;4971165;28;20053;-75
2022/12/02 08:31:48;;;;;;;7.18;3.47;;;17.90;99.90;;;;;;4972686;28;20524;-73
2022/12/02 08:34:15;;;;;;;5.65;3.33;;;17.80;99.90;;;;;;4972879;28;20054;-72
2022/12/02 08:36:43;;;;;;;4.00;2.97;;;17.80;99.90;;;;;;4972860;28;20507;-72
2022/12/02 08:39:10;;;;;;;4.47;3.00;;;17.90;99.90;;;;;;4972201;28;20046;-72
2022/12/02 08:41:38;;;;;;;4.65;3.35;;;17.70;99.90;;;;;;4972418;28;20062;-73
2022/12/02 08:44:06;;;;;;;4.35;2.70;;;17.70;99.90;;;;;;4970798;28;20039;-73
2022/12/02 08:46:35;;;;;;;7.78;3.03;;;17.60;99.90;;;;;;4972695;28;20047;-73
2022/12/02 08:49:05;;;;;;;7.97;4.00;;;17.40;99.90;;;;;;4954453;28;20054;-73
2022/12/02 08:51:33;;;;;;;5.28;3.10;;;17.50;99.90;;;;;;4939804;29;20102;-73
2022/12/02 08:54:01;;;;;;;4.10;2.67;;;17.50;99.90;;;;;;4959775;28;20136;-73
2022/12/02 08:56:28;;;;;;;4.85;2.72;;;17.60;99.90;;;;;;4971629;28;20464;-73
2022/12/02 08:58:56;;;;;;;6.32;4.05;;;17.90;99.90;;;;;;4970826;28;20134;-73
2022/12/02 09:01:24;;;;;;;5.75;4.13;;;18.20;99.90;;;;;;4971040;28;20041;-72
2022/12/02 09:03:51;;;;;;;8.50;3.15;;;18.30;99.90;;;;;;4972307;28;20098;-72
2022/12/02 09:06:19;;;;;;;4.60;2.50;;;18.20;99.90;;;;;;4972199;28;20094;-73
2022/12/02 09:08:46;;;;;;;4.22;3.13;;;18.20;99.90;;;;;;4954997;28;20642;-73
2022/12/02 09:11:14;;;;;;;3.50;2.65;;;18.00;99.90;;;;;;4951053;28;20047;-72
2022/12/02 09:13:41;;;;;;;4.78;2.97;;;17.90;99.90;;;;;;4951583;29;20502;-73
2022/12/02 09:16:09;;;;;;;4.15;3.00;;;17.80;99.90;;;;;;4951444;29;20102;-74
2022/12/02 09:18:37;;;;;;;7.05;3.85;;;18.00;99.90;;;;;;4935260;29;20145;-72
2022/12/02 09:21:04;;;;;;;6.05;3.92;;;18.10;99.90;;;;;;4954046;28;20365;-72
2022/12/02 09:23:32;;;;;;;5.13;3.55;;;18.10;99.90;;;;;;4970636;28;20042;-72
2022/12/02 09:25:59;;;;;;;4.53;3.15;;;18.00;99.90;;;;;;4970253;28;20425;-72
2022/12/02 09:28:27;;;;;;;9.93;5.80;;;18.10;99.90;;;;;;4971861;28;20042;-72
2022/12/02 09:30:54;;;;;;;6.00;3.13;;;18.10;99.90;;;;;;4970485;28;20054;-72
2022/12/02 09:33:22;;;;;;;8.15;3.38;;;18.00;99.90;;;;;;4971357;28;20047;-72
2022/12/02 09:35:50;;;;;;;4.97;2.70;;;17.80;99.90;;;;;;4971239;28;20141;-72
2022/12/02 09:38:17;;;;;;;6.40;3.45;;;17.90;99.90;;;;;;4954361;28;20524;-73
2022/12/02 09:40:46;;;;;;;5.85;3.33;;;18.00;99.90;;;;;;4971579;28;20093;-72
2022/12/02 09:43:14;;;;;;;15.02;9.20;;;17.90;99.90;;;;;;4971298;28;20057;-72
2022/12/02 09:45:41;;;;;;;6.25;4.95;;;18.20;99.90;;;;;;4970237;28;20404;-72
2022/12/02 09:48:09;;;;;;;8.18;6.07;;;18.30;99.90;;;;;;4970012;28;20054;-72
2022/12/02 09:50:38;;;;;;;5.38;3.90;;;18.20;99.90;;;;;;4984576;28;20058;-73
2022/12/02 09:53:07;;;;;;;4.65;3.13;;;17.90;99.90;;;;;;4983016;28;20053;-72
2022/12/02 09:55:36;;;;;;;4.25;3.00;;;17.50;99.90;;;;;;4988596;28;20365;-73
2022/12/02 09:58:18;;;;;;;4.07;2.80;;;17.50;99.90;;;;;;4989479;28;20078;-73
2022/12/02 10:00:46;;;;;;;10.15;4.65;;;17.40;99.90;;;;;;4967599;28;20046;-72
2022/12/02 10:03:16;;;;;;;5.25;3.65;;;17.40;99.90;;;;;;4977891;28;20125;-72
2022/12/02 10:05:45;;;;;;;5.32;3.03;;;17.50;99.90;;;;;;4956722;28;20039;-72
2022/12/02 10:08:18;;;;;;;4.20;3.03;;;17.60;99.90;;;;;;4971374;28;20089;-72
2022/12/02 10:10:46;;;;;;;4.13;2.85;;;17.70;99.90;;;;;;4969653;28;20054;-72
2022/12/02 10:13:19;;;;;;;5.15;3.45;;;17.70;99.90;;;;;;4969213;28;20191;-73
2022/12/02 10:15:47;;;;;;;5.40;2.90;;;17.70;99.90;;;;;;4970996;28;20051;-72
2022/12/02 10:18:25;;;;;;;4.00;2.85;;;17.90;99.90;;;;;;4985479;28;20138;-72
2022/12/02 10:20:53;;;;;;;5.07;3.22;;;17.90;99.90;;;;;;4970784;28;20047;-72
2022/12/02 10:23:25;;;;;;;4.18;3.35;;;18.00;99.90;;;;;;4970318;28;20070;-72
2022/12/02 10:26:13;;;;;;;3.45;2.47;;;17.90;99.90;;;;;;4985193;28;20054;-72
2022/12/02 10:28:42;;;;;;;5.57;3.05;;;17.70;99.90;;;;;;4970382;28;20493;-72
2022/12/02 10:31:27;;;;;;;4.13;2.65;;;17.60;99.90;;;;;;4969150;28;20065;-72
2022/12/02 10:34:01;;;;;;;5.97;3.17;;;17.40;99.90;;;;;;4953359;28;20082;-73
2022/12/02 10:36:37;;;;;;;4.70;3.60;;;17.50;99.90;;;;;;4968568;28;20156;-72
2022/12/02 10:39:26;;;;;;;6.25;3.28;;;17.60;99.90;;;;;;4969575;28;20519;-72
2022/12/02 10:42:07;;;;;;;4.88;3.33;;;17.70;99.90;;;;;;4968044;28;20125;-72
2022/12/02 10:44:41;;;;;;;4.05;2.97;;;17.70;99.90;;;;;;4968816;28;20050;-72
2022/12/02 10:47:17;;;;;;;6.88;3.28;;;17.70;99.90;;;;;;4983218;28;20413;-72
2022/12/02 10:49:51;;;;;;;4.10;3.13;;;17.90;99.90;;;;;;4983361;28;20047;-72
2022/12/02 10:52:25;;;;;;;5.65;2.63;;;17.90;99.90;;;;;;4967845;28;20054;-72
2022/12/02 10:54:55;;;;;;;6.13;3.00;;;17.90;99.90;;;;;;4983387;28;20051;-72
2022/12/02 10:57:28;;;;;;;7.97;2.72;;;17.80;99.90;;;;;;4967270;28;20393;-72
2022/12/02 11:00:00;;;;;;;14.80;3.75;;;17.90;99.90;;;;;;4967714;28;20053;-72
2022/12/02 11:02:33;;;;;;;4.60;3.30;;;18.10;99.90;;;;;;4968897;28;20145;-73
2022/12/02 11:05:20;;;;;;;8.57;2.58;;;18.10;99.90;;;;;;4969613;28;20046;-73
2022/12/02 11:07:56;;;;;;;4.88;2.65;;;18.10;99.90;;;;;;4968693;28;20138;-72
2022/12/02 11:10:31;;;;;;;4.10;2.97;;;18.30;99.90;;;;;;4968896;28;20137;-72
2022/12/02 11:13:24;;;;;;;4.13;2.45;;;18.40;99.90;;;;;;4969732;28;20527;-72
2022/12/02 11:15:52;;;;;;;5.50;2.28;;;18.20;99.90;;;;;;4959119;28;20398;-72
2022/12/02 11:18:28;;;;;;;4.90;2.90;;;18.20;99.90;;;;;;4969628;28;20047;-73
2022/12/02 11:21:08;;;;;;;5.10;2.90;;;18.20;99.90;;;;;;4969265;28;20560;-75
2022/12/02 11:23:35;;;;;;;4.93;3.13;;;18.10;99.90;;;;;;4968554;28;20074;-72
2022/12/02 11:26:10;;;;;;;5.78;2.78;;;18.50;99.90;;;;;;4968213;28;20051;-73
2022/12/02 11:29:15;;;;;;;4.13;2.47;;;18.40;99.90;;;;;;4968745;28;20133;-73
2022/12/02 11:31:59;;;;;;;5.10;2.85;;;18.20;99.90;;;;;;4969562;28;20046;-72
2022/12/02 11:34:42;;;;;;;3.95;2.45;;;18.10;99.90;;;;;;4968661;28;20490;-72
2022/12/02 11:37:27;;;;;;;4.60;2.90;;;18.20;99.90;;;;;;4968644;28;20046;-72
2022/12/02 11:39:54;;;;;;;3.42;2.60;;;18.30;99.90;;;;;;4968371;28;20119;-72
2022/12/02 11:42:26;;;;;;;5.28;3.13;;;18.10;99.90;;;;;;4968233;28;20105;-72
2022/12/02 11:45:09;;;;;;;3.75;3.10;;;17.90;99.90;;;;;;4967991;28;20438;-73
2022/12/02 11:47:37;;;;;;;7.43;3.88;;;17.80;99.90;;;;;;4969527;28;20081;-72
2022/12/02 11:50:14;;;;;;;8.52;5.00;;;17.50;99.90;;;;;;4952062;28;20175;-72
2022/12/02 11:52:48;;;;;;;5.45;3.72;;;17.30;99.90;;;;;;4967795;28;20493;-73
2022/12/02 11:55:20;;;;;;;6.38;3.53;;;17.20;99.90;;;;;;4967177;28;20078;-76
2022/12/02 11:57:51;;;;;;;6.05;3.60;;;17.10;99.90;;;;;;4967962;28;20058;-72
2022/12/02 12:00:20;;;;;;;9.43;5.30;;;17.00;99.90;;;;;;4970731;28;20043;-72
2022/12/02 12:03:06;;;;;;;6.40;3.20;;;16.90;99.90;;;;;;4972994;28;20501;-72
2022/12/02 12:05:33;;;;;;;4.25;3.33;;;16.80;99.90;;;;;;4956042;28;20055;-72
2022/12/02 12:08:01;;;;;;;6.10;3.65;;;16.90;99.90;;;;;;4971718;28;20050;-73
2022/12/02 12:10:31;;;;;;;3.92;2.80;;;17.00;99.90;;;;;;4971762;28;20081;-72
2022/12/02 12:13:22;;;;;;;7.80;3.97;;;17.00;99.90;;;;;;4987585;28;20042;-72
2022/12/02 12:16:00;;;;;;;8.77;6.38;;;17.10;99.90;;;;;;4973328;28;20138;-72
2022/12/02 12:18:40;;;;;;;8.85;5.40;;;16.90;99.90;;;;;;4971707;28;20062;-73
2022/12/02 12:21:08;;;;;;;7.60;4.43;;;16.90;99.90;;;;;;4971774;28;20043;-72
2022/12/02 12:23:44;;;;;;;6.30;4.93;;;17.00;99.90;;;;;;4971848;28;20078;-72
2022/12/02 12:26:32;;;;;;;7.22;4.72;;;17.10;99.90;;;;;;4973125;28;20047;-74
2022/12/02 12:29:02;;;;;;;9.18;6.22;;;17.40;99.90;;;;;;4973067;28;20069;-73
2022/12/02 12:31:30;;;;;;;6.35;4.38;;;17.50;99.90;;;;;;4971453;28;20057;-73
2022/12/02 12:34:01;;;;;;;5.45;3.20;;;17.60;99.90;;;;;;4970792;28;20070;-74
2022/12/02 12:36:29;;;;;;;5.70;3.70;;;17.50;99.90;;;;;;4973293;28;20600;-72
2022/12/02 12:38:57;;;;;;;4.80;2.90;;;17.20;99.90;;;;;;4955280;28;20137;-72
2022/12/02 12:41:25;;;;;;;4.10;2.60;;;17.10;99.90;;;;;;4972618;28;20438;-72
2022/12/02 12:44:03;;;;;;;6.43;4.78;;;17.10;99.90;;;;;;4956833;28;20153;-72
2022/12/02 12:46:31;;;;;;;7.47;4.72;;;17.20;99.90;;;;;;4955428;28;20067;-73
2022/12/02 12:48:59;;;;;;;6.60;3.92;;;17.20;99.90;;;;;;4971239;28;20085;-72
2022/12/02 12:51:26;;;;;;;6.05;3.78;;;17.20;99.90;;;;;;4972712;28;20074;-73
2022/12/02 12:53:54;;;;;;;4.40;3.47;;;17.10;99.90;;;;;;4972580;28;20077;-72
2022/12/02 12:56:21;;;;;;;5.60;3.35;;;17.10;99.90;;;;;;4972601;28;20153;-72
2022/12/02 12:58:49;;;;;;;6.22;3.58;;;16.90;99.90;;;;;;4972730;28;20157;-71
2022/12/02 13:01:17;;;;;;;5.88;3.67;;;16.80;99.90;;;;;;4970243;28;20598;-72